Time;durP1;ratioP1;P1;durP2;ratioP2;P2;SDS_P1;SDS_P2;PMS_P1;PMS_P2;Temp;Humidity;BMP_temperature;BMP_pressure;BME280_temperature;BME280_humidity;BME280_pressure;Samples;Min_cycle;Max_cycle;Signal;HPM_P1;HPM_P2
2023/02/04 00:00:12;;;;;;;;;;;;;;;13.41;71.20;102914.97;1267293;23;627;-79
2023/02/04 00:01:03;;;;;;;;;;;;;;;13.39;70.83;102908.78;1267146;23;1921;-79
2023/02/04 00:01:53;;;;;;;;;;;;;;;13.40;71.26;102917.69;1267278;23;664;-79
2023/02/04 00:02:44;;;;;;;;;;;;;;;13.39;70.95;102919.50;1261913;23;1284;-79
2023/02/04 00:03:34;;;;;;;;;;;;;;;13.40;71.16;102931.09;1261228;23;669;-79
2023/02/04 00:04:24;;;;;;;;;;;;;;;13.40;71.35;102934.63;1261113;23;637;-79
2023/02/04 00:05:15;;;;;;;;;;;;;;;13.39;71.27;102927.53;1261180;23;657;-79
2023/02/04 00:06:05;;;;;;;;;;;;;;;13.41;71.65;102932.84;1259724;23;630;-79
2023/02/04 00:06:56;;;;;;;;;;;;;;;13.42;71.71;102926.53;1261307;23;653;-79
2023/02/04 00:07:46;;;;;;;;;;;;;;;13.42;71.16;102927.41;1261176;23;682;-79
2023/02/04 00:08:36;;;;;;;;;;;;;;;13.42;70.68;102924.72;1261238;23;614;-79
2023/02/04 00:09:27;;;;;;;;;;;;;;;13.41;70.66;102931.03;1261327;23;653;-79
2023/02/04 00:10:17;;;;;;;;;;;;;;;13.40;71.18;102923.94;1261163;23;606;-79
2023/02/04 00:11:08;;;;;;;;;;;;;;;13.41;71.38;102930.16;1260242;23;622;-79
2023/02/04 00:11:58;;;;;;;;;;;;;;;13.41;70.68;102933.69;1261360;23;625;-79
2023/02/04 00:12:49;;;;;;;;;;;;;;;13.43;70.45;102929.16;1260876;23;598;-82
2023/02/04 00:13:39;;;;;;;;;;;;;;;13.43;71.08;102929.16;1261628;23;641;-82
2023/02/04 00:14:30;;;;;;;;;;;;;;;13.42;70.46;102926.53;1261372;23;638;-82
2023/02/04 00:15:20;;;;;;;;;;;;;;;13.42;71.24;102931.91;1261546;23;610;-82
2023/02/04 00:16:10;;;;;;;;;;;;;;;13.41;70.63;102931.03;1261156;23;657;-82
2023/02/04 00:17:01;;;;;;;;;;;;;;;13.39;71.26;102937.38;1261603;23;828;-82
2023/02/04 00:17:51;;;;;;;;;;;;;;;13.39;71.36;102940.06;1261942;23;643;-82
2023/02/04 00:18:42;;;;;;;;;;;;;;;13.39;70.84;102943.59;1261962;23;657;-82
2023/02/04 00:19:32;;;;;;;;;;;;;;;13.39;70.64;102938.25;1261801;23;774;-82
2023/02/04 00:20:23;;;;;;;;;;;;;;;13.37;70.60;102942.81;1261969;23;657;-82
2023/02/04 00:21:13;;;;;;;;;;;;;;;13.37;70.60;102934.75;1262151;23;637;-82
2023/02/04 00:22:04;;;;;;;;;;;;;;;13.39;70.41;102951.63;1261981;23;660;-83
2023/02/04 00:22:55;;;;;;;;;;;;;;;13.40;71.04;102950.72;1261994;23;653;-82
2023/02/04 00:23:45;;;;;;;;;;;;;;;13.40;70.56;102945.34;1261873;23;637;-82
2023/02/04 00:24:36;;;;;;;;;;;;;;;13.40;71.16;102956.06;1261906;23;614;-82
2023/02/04 00:25:26;;;;;;;;;;;;;;;13.39;70.67;102948.09;1261934;23;656;-82
2023/02/04 00:26:16;;;;;;;;;;;;;;;13.40;70.70;102945.34;1261802;23;720;-82
2023/02/04 00:27:07;;;;;;;;;;;;;;;13.39;71.04;102951.63;1261925;23;610;-82
2023/02/04 00:27:57;;;;;;;;;;;;;;;13.39;71.54;102948.09;1254746;23;630;-82
2023/02/04 00:28:48;;;;;;;;;;;;;;;13.39;71.07;102953.44;1257579;23;630;-82
2023/02/04 00:29:38;;;;;;;;;;;;;;;13.39;71.42;102948.09;1262587;23;716;-82
2023/02/04 00:30:29;;;;;;;;;;;;;;;13.38;70.66;102955.25;1261428;23;645;-82
2023/02/04 00:31:19;;;;;;;;;;;;;;;13.39;70.55;102950.78;1254884;23;681;-83
2023/02/04 00:32:10;;;;;;;;;;;;;;;13.40;70.78;102949.84;1257482;23;645;-83
2023/02/04 00:33:00;;;;;;;;;;;;;;;13.38;70.77;102947.22;1262867;23;654;-82
2023/02/04 00:33:51;;;;;;;;;;;;;;;13.39;71.20;102948.97;1262260;23;689;-83
2023/02/04 00:34:41;;;;;;;;;;;;;;;13.38;70.84;102946.34;1262083;23;615;-83
2023/02/04 00:35:31;;;;;;;;;;;;;;;13.38;70.58;102941.88;1261849;23;638;-86
2023/02/04 00:36:22;;;;;;;;;;;;;;;13.39;70.54;102948.09;1260334;23;617;-86
2023/02/04 00:37:12;;;;;;;;;;;;;;;13.40;71.08;102953.38;1261014;23;688;-84
2023/02/04 00:38:03;;;;;;;;;;;;;;;13.39;70.88;102951.63;1262092;23;654;-84
2023/02/04 00:38:53;;;;;;;;;;;;;;;13.38;71.28;102952.56;1260634;23;673;-84
2023/02/04 00:39:44;;;;;;;;;;;;;;;13.37;71.01;102956.19;1262030;23;614;-84
2023/02/04 00:40:34;;;;;;;;;;;;;;;13.38;71.13;102960.63;1261788;23;641;-84
2023/02/04 00:41:25;;;;;;;;;;;;;;;13.38;71.33;102959.75;1261808;23;602;-85
2023/02/04 00:42:15;;;;;;;;;;;;;;;13.37;71.35;102960.69;1260612;23;638;-84
2023/02/04 00:43:06;;;;;;;;;;;;;;;13.36;71.06;102965.16;1261651;23;622;-84
2023/02/04 00:43:56;;;;;;;;;;;;;;;13.35;70.70;102967.91;1261958;23;671;-83
2023/02/04 00:44:47;;;;;;;;;;;;;;;13.36;71.18;102958.94;1261322;23;710;-83
2023/02/04 00:45:37;;;;;;;;;;;;;;;13.33;70.83;102957.25;1261999;23;622;-82
2023/02/04 00:46:27;;;;;;;;;;;;;;;13.35;70.81;102966.09;1261890;23;633;-82
2023/02/04 00:47:18;;;;;;;;;;;;;;;13.35;70.54;102960.75;1261677;23;661;-81
2023/02/04 00:48:08;;;;;;;;;;;;;;;13.36;70.75;102965.16;1261780;23;688;-82
2023/02/04 00:48:59;;;;;;;;;;;;;;;13.36;70.90;102964.28;1261479;23;744;-82
2023/02/04 00:49:49;;;;;;;;;;;;;;;13.35;71.51;102974.13;1261965;23;630;-82
2023/02/04 00:50:40;;;;;;;;;;;;;;;13.34;70.69;102972.38;1261775;23;638;-82
2023/02/04 00:51:30;;;;;;;;;;;;;;;13.33;70.75;102969.78;1254620;23;635;-82
2023/02/04 00:52:20;;;;;;;;;;;;;;;13.33;70.68;102965.28;1256986;23;662;-82
2023/02/04 00:53:11;;;;;;;;;;;;;;;13.34;71.33;102966.16;1262739;23;755;-82
2023/02/04 00:54:01;;;;;;;;;;;;;;;13.34;71.23;102971.50;1261854;23;695;-82
2023/02/04 00:54:52;;;;;;;;;;;;;;;13.35;71.53;102973.25;1254444;23;634;-82
2023/02/04 00:55:42;;;;;;;;;;;;;;;13.35;70.87;102968.78;1257201;23;657;-82
2023/02/04 00:56:32;;;;;;;;;;;;;;;13.34;70.85;102971.50;1254757;23;669;-82
2023/02/04 00:57:23;;;;;;;;;;;;;;;13.35;71.02;102976.81;1256406;23;633;-82
2023/02/04 00:58:13;;;;;;;;;;;;;;;13.36;71.12;102975.88;1261712;23;669;-81
2023/02/04 00:59:04;;;;;;;;;;;;;;;13.38;71.01;102974.00;1261711;23;641;-82
2023/02/04 00:59:54;;;;;;;;;;;;;;;13.37;71.31;102977.63;1261661;23;610;-82
2023/02/04 01:00:45;;;;;;;;;;;;;;;13.36;70.83;102975.00;1261442;23;1932;-82
2023/02/04 01:01:35;;;;;;;;;;;;;;;13.36;70.74;102975.88;1254593;23;686;-82
2023/02/04 01:02:25;;;;;;;;;;;;;;;13.36;70.67;102975.88;1261344;23;1234;-81
2023/02/04 01:03:16;;;;;;;;;;;;;;;13.36;71.23;102980.34;1268080;23;644;-82
2023/02/04 01:04:06;;;;;;;;;;;;;;;13.36;71.08;102978.53;1267943;23;568;-83
2023/02/04 01:04:57;;;;;;;;;;;;;;;13.36;70.58;102975.00;1267854;23;657;-82
2023/02/04 01:05:47;;;;;;;;;;;;;;;13.35;71.43;102970.56;1267687;23;684;-79
2023/02/04 01:06:38;;;;;;;;;;;;;;;13.34;70.81;102980.41;1267546;23;646;-77
2023/02/04 01:07:28;;;;;;;;;;;;;;;13.35;70.63;102983.97;1266991;23;606;-78
2023/02/04 01:08:19;;;;;;;;;;;;;;;13.35;71.20;102984.84;1267565;23;657;-78
2023/02/04 01:09:09;;;;;;;;;;;;;;;13.35;71.32;102984.84;1267649;23;626;-79
2023/02/04 01:09:59;;;;;;;;;;;;;;;13.34;71.35;102991.13;1267684;23;641;-79
2023/02/04 01:10:50;;;;;;;;;;;;;;;13.33;71.38;102986.72;1267626;23;734;-79
2023/02/04 01:11:40;;;;;;;;;;;;;;;13.33;70.71;102984.03;1267567;23;653;-79
2023/02/04 01:12:31;;;;;;;;;;;;;;;13.33;70.72;102978.66;1267638;23;637;-79
2023/02/04 01:13:21;;;;;;;;;;;;;;;13.33;71.44;102986.72;1267569;23;673;-79
2023/02/04 01:14:12;;;;;;;;;;;;;;;13.32;71.44;102986.78;1267524;23;610;-79
2023/02/04 01:15:02;;;;;;;;;;;;;;;13.32;71.27;102987.66;1267509;23;657;-79
2023/02/04 01:15:52;;;;;;;;;;;;;;;13.32;71.06;102990.31;1267572;23;618;-79
2023/02/04 01:16:44;;;;;;;;;;;;;;;13.32;70.65;102990.31;1267569;23;607;-79
2023/02/04 01:17:34;;;;;;;;;;;;;;;13.33;70.89;102991.19;1267603;23;649;-79
2023/02/04 01:18:24;;;;;;;;;;;;;;;13.34;70.57;102991.13;1267569;23;637;-79
2023/02/04 01:19:15;;;;;;;;;;;;;;;13.35;71.33;102997.34;1267470;23;749;-80
2023/02/04 01:20:05;;;;;;;;;;;;;;;13.34;71.52;102993.81;1267532;23;653;-79
2023/02/04 01:20:56;;;;;;;;;;;;;;;13.33;71.66;102997.41;1272196;23;1892;-79
2023/02/04 01:21:46;;;;;;;;;;;;;;;13.32;70.75;102993.00;1273286;23;655;-78
2023/02/04 01:22:37;;;;;;;;;;;;;;;13.32;70.68;102995.69;1267771;23;631;-78
2023/02/04 01:23:27;;;;;;;;;;;;;;;13.32;70.83;103001.03;1267552;23;598;-79
2023/02/04 01:24:17;;;;;;;;;;;;;;;13.30;71.29;103002.91;1272447;23;658;-78
2023/02/04 01:25:08;;;;;;;;;;;;;;;13.31;71.20;103001.09;1273419;23;618;-78
2023/02/04 01:25:58;;;;;;;;;;;;;;;13.32;71.20;103003.72;1267695;23;739;-78
2023/02/04 01:26:49;;;;;;;;;;;;;;;13.32;71.30;102994.81;1267632;23;631;-79
2023/02/04 01:27:39;;;;;;;;;;;;;;;13.32;71.57;102995.69;1267405;23;654;-79
2023/02/04 01:28:30;;;;;;;;;;;;;;;13.31;71.16;102998.41;1267031;23;619;-79
2023/02/04 01:29:20;;;;;;;;;;;;;;;13.29;71.26;102997.59;1267380;23;645;-79
2023/02/04 01:30:10;;;;;;;;;;;;;;;13.28;71.44;102999.41;1267513;23;649;-78
2023/02/04 01:31:01;;;;;;;;;;;;;;;13.28;71.56;102999.41;1267455;23;618;-78
2023/02/04 01:31:51;;;;;;;;;;;;;;;13.29;71.76;103000.28;1267584;23;646;-78
2023/02/04 01:32:42;;;;;;;;;;;;;;;13.28;71.67;103002.09;1267382;23;590;-78
2023/02/04 01:33:32;;;;;;;;;;;;;;;13.29;71.59;103008.31;1267546;23;716;-78
2023/02/04 01:34:24;;;;;;;;;;;;;;;13.27;71.35;103008.38;1267425;23;645;-79
2023/02/04 01:35:15;;;;;;;;;;;;;;;13.28;71.62;103009.25;1267582;23;626;-79
2023/02/04 01:36:05;;;;;;;;;;;;;;;13.29;71.55;103008.31;1267500;23;812;-78
2023/02/04 01:36:56;;;;;;;;;;;;;;;13.26;71.92;103009.31;1267680;23;826;-78
2023/02/04 01:37:46;;;;;;;;;;;;;;;13.27;71.08;103015.53;1267542;23;653;-78
2023/02/04 01:38:36;;;;;;;;;;;;;;;13.25;71.28;103015.63;1267600;23;645;-76
2023/02/04 01:39:27;;;;;;;;;;;;;;;13.24;71.94;103013.88;1267391;23;641;-79
2023/02/04 01:40:17;;;;;;;;;;;;;;;13.25;71.26;103012.94;1267655;23;680;-80
2023/02/04 01:41:08;;;;;;;;;;;;;;;13.26;70.93;103011.97;1267469;23;1880;-79
2023/02/04 01:41:59;;;;;;;;;;;;;;;13.29;71.83;103022.56;1267426;23;629;-79
2023/02/04 01:42:50;;;;;;;;;;;;;;;13.27;71.56;103018.22;1267043;23;692;-80
2023/02/04 01:43:40;;;;;;;;;;;;;;;13.29;71.41;103019.03;1267580;23;665;-79
2023/02/04 01:44:31;;;;;;;;;;;;;;;13.28;72.00;103018.16;1267574;23;614;-82
2023/02/04 01:45:21;;;;;;;;;;;;;;;13.29;71.48;103022.56;1267550;23;728;-79
2023/02/04 01:46:12;;;;;;;;;;;;;;;13.29;71.57;103030.59;1267532;23;618;-80
2023/02/04 01:47:02;;;;;;;;;;;;;;;13.30;71.88;103027.00;1267362;23;632;-79
2023/02/04 01:47:52;;;;;;;;;;;;;;;13.30;71.13;103018.97;1267559;23;633;-79
2023/02/04 01:48:43;;;;;;;;;;;;;;;13.31;71.38;103025.19;1267446;23;610;-82
2023/02/04 01:49:33;;;;;;;;;;;;;;;13.32;71.06;103024.25;1272940;23;673;-83
2023/02/04 01:50:24;;;;;;;;;;;;;;;13.30;71.22;103029.69;1273454;23;648;-84
2023/02/04 01:51:14;;;;;;;;;;;;;;;13.31;71.39;103019.84;1267961;23;604;-82
2023/02/04 01:52:05;;;;;;;;;;;;;;;13.32;71.63;103029.63;1268035;23;667;-82
2023/02/04 01:52:55;;;;;;;;;;;;;;;13.32;71.34;103033.16;1268050;23;755;-83
2023/02/04 01:53:45;;;;;;;;;;;;;;;13.31;70.99;103036.78;1267770;23;684;-81
2023/02/04 01:54:36;;;;;;;;;;;;;;;13.31;71.37;103036.78;1267573;23;866;-82
2023/02/04 01:55:26;;;;;;;;;;;;;;;13.32;70.92;103043.00;1268033;23;728;-80
2023/02/04 01:56:17;;;;;;;;;;;;;;;13.31;71.56;103042.13;1267914;23;649;-82
2023/02/04 01:57:07;;;;;;;;;;;;;;;13.31;71.75;103039.47;1267602;23;643;-82
2023/02/04 01:57:58;;;;;;;;;;;;;;;13.30;71.72;103039.50;1267704;23;633;-82
2023/02/04 01:58:48;;;;;;;;;;;;;;;13.30;71.12;103035.03;1267784;23;637;-83
2023/02/04 01:59:41;;;;;;;;;;;;;;;13.29;71.21;103044.00;1268214;23;665;-83
2023/02/04 02:00:31;;;;;;;;;;;;;;;13.28;71.99;103042.25;1273382;23;622;-79
2023/02/04 02:01:22;;;;;;;;;;;;;;;13.28;71.56;103044.06;1273481;23;653;-82
2023/02/04 02:02:12;;;;;;;;;;;;;;;13.28;71.83;103046.75;1266304;23;858;-78
2023/02/04 02:03:03;;;;;;;;;;;;;;;13.28;71.15;103046.75;1266331;23;641;-78
2023/02/04 02:03:54;;;;;;;;;;;;;;;13.27;72.08;103042.31;1266535;23;639;-79
2023/02/04 02:04:44;;;;;;;;;;;;;;;13.28;71.59;103044.94;1267450;23;602;-79
2023/02/04 02:05:35;;;;;;;;;;;;;;;13.27;71.11;103045.88;1267514;23;660;-78
2023/02/04 02:06:25;;;;;;;;;;;;;;;13.28;71.11;103052.97;1267463;23;610;-79
2023/02/04 02:07:15;;;;;;;;;;;;;;;13.29;71.43;103043.13;1267544;23;614;-81
2023/02/04 02:08:06;;;;;;;;;;;;;;;13.28;70.96;103047.59;1267544;23;628;-85
2023/02/04 02:08:57;;;;;;;;;;;;;;;13.28;71.65;103044.06;1268118;23;700;-85
2023/02/04 02:09:47;;;;;;;;;;;;;;;13.28;71.50;103041.38;1273637;23;740;-85
2023/02/04 02:10:38;;;;;;;;;;;;;;;13.28;71.16;103046.75;1273862;23;613;-84
2023/02/04 02:11:28;;;;;;;;;;;;;;;13.27;71.30;103045.00;1267799;23;633;-84
2023/02/04 02:12:18;;;;;;;;;;;;;;;13.26;71.02;103044.13;1267766;23;669;-84
2023/02/04 02:13:09;;;;;;;;;;;;;;;13.26;71.49;103046.78;1272602;23;628;-81
2023/02/04 02:13:59;;;;;;;;;;;;;;;13.27;71.00;103042.31;1273331;23;648;-81
2023/02/04 02:14:50;;;;;;;;;;;;;;;13.26;71.75;103048.59;1267918;23;684;-81
2023/02/04 02:15:40;;;;;;;;;;;;;;;13.25;70.81;103047.75;1267541;23;650;-82
2023/02/04 02:16:31;;;;;;;;;;;;;;;13.24;71.42;103046.00;1267806;23;636;-81
2023/02/04 02:17:21;;;;;;;;;;;;;;;13.25;71.07;103049.56;1267449;23;613;-79
2023/02/04 02:18:11;;;;;;;;;;;;;;;13.25;71.65;103052.25;1267462;23;653;-79
2023/02/04 02:19:02;;;;;;;;;;;;;;;13.23;71.59;103048.75;1267476;23;649;-79
2023/02/04 02:19:52;;;;;;;;;;;;;;;13.24;71.42;103051.38;1272397;23;675;-79
2023/02/04 02:20:43;;;;;;;;;;;;;;;13.25;71.63;103046.88;1266265;23;671;-80
2023/02/04 02:21:34;;;;;;;;;;;;;;;13.23;71.35;103056.78;1265984;23;594;-80
2023/02/04 02:22:24;;;;;;;;;;;;;;;13.23;71.01;103052.31;1266643;23;695;-80
2023/02/04 02:23:15;;;;;;;;;;;;;;;13.23;71.66;103054.97;1267686;23;598;-79
2023/02/04 02:24:05;;;;;;;;;;;;;;;13.23;71.46;103054.97;1267543;23;613;-81
2023/02/04 02:24:55;;;;;;;;;;;;;;;13.24;71.76;103058.53;1267563;23;634;-79
2023/02/04 02:25:46;;;;;;;;;;;;;;;13.22;71.01;103057.72;1267402;23;633;-79
2023/02/04 02:26:36;;;;;;;;;;;;;;;13.22;70.83;103053.22;1266747;23;641;-76
2023/02/04 02:27:27;;;;;;;;;;;;;;;13.22;71.31;103061.28;1267404;23;657;-75
2023/02/04 02:28:17;;;;;;;;;;;;;;;13.20;71.75;103055.09;1267273;23;642;-75
2023/02/04 02:29:08;;;;;;;;;;;;;;;13.19;71.28;103053.34;1267507;23;629;-75
2023/02/04 02:29:58;;;;;;;;;;;;;;;13.19;71.69;103056.03;1267261;23;626;-75
2023/02/04 02:30:48;;;;;;;;;;;;;;;13.19;71.91;103056.03;1267076;23;652;-75
2023/02/04 02:31:39;;;;;;;;;;;;;;;13.20;71.07;103060.47;1267129;23;617;-75
2023/02/04 02:32:29;;;;;;;;;;;;;;;13.20;71.75;103053.28;1267401;23;602;-75
2023/02/04 02:33:20;;;;;;;;;;;;;;;13.20;71.45;103049.75;1267366;23;657;-75
2023/02/04 02:34:10;;;;;;;;;;;;;;;13.22;71.16;103061.28;1267372;23;629;-76
2023/02/04 02:35:01;;;;;;;;;;;;;;;13.22;71.66;103053.22;1267307;23;621;-75
2023/02/04 02:35:51;;;;;;;;;;;;;;;13.20;71.38;103055.09;1272311;23;624;-75
2023/02/04 02:36:41;;;;;;;;;;;;;;;13.21;71.00;103056.84;1272919;23;685;-76
2023/02/04 02:37:32;;;;;;;;;;;;;;;13.20;70.89;103057.78;1267524;23;641;-75
2023/02/04 02:38:23;;;;;;;;;;;;;;;13.22;70.86;103055.03;1267283;23;605;-76
2023/02/04 02:39:13;;;;;;;;;;;;;;;13.20;71.62;103055.97;1267388;23;629;-75
2023/02/04 02:40:04;;;;;;;;;;;;;;;13.19;71.82;103058.72;1267192;23;642;-77
2023/02/04 02:40:54;;;;;;;;;;;;;;;13.19;71.63;103054.22;1266990;23;1881;-77
2023/02/04 02:41:45;;;;;;;;;;;;;;;13.18;71.28;103052.47;1267370;23;649;-77
2023/02/04 02:42:35;;;;;;;;;;;;;;;13.18;72.00;103062.31;1267365;23;641;-76
2023/02/04 02:43:26;;;;;;;;;;;;;;;13.19;71.79;103061.38;1267387;23;649;-76
2023/02/04 02:44:16;;;;;;;;;;;;;;;13.17;71.88;103060.56;1267318;23;653;-77
2023/02/04 02:45:06;;;;;;;;;;;;;;;13.18;71.06;103056.97;1267361;23;640;-78
2023/02/04 02:45:57;;;;;;;;;;;;;;;13.18;71.22;103062.31;1267379;23;598;-78
2023/02/04 02:46:47;;;;;;;;;;;;;;;13.18;71.02;103062.31;1267314;23;680;-79
2023/02/04 02:47:38;;;;;;;;;;;;;;;13.17;71.90;103061.44;1272224;23;619;-78
2023/02/04 02:48:28;;;;;;;;;;;;;;;13.17;71.27;103060.56;1273132;23;645;-77
2023/02/04 02:49:19;;;;;;;;;;;;;;;13.18;71.94;103062.31;1267376;23;669;-76
2023/02/04 02:50:09;;;;;;;;;;;;;;;13.18;71.06;103062.31;1267290;23;634;-77
2023/02/04 02:50:59;;;;;;;;;;;;;;;13.18;71.24;103060.50;1267306;23;657;-76
2023/02/04 02:51:50;;;;;;;;;;;;;;;13.19;71.80;103064.06;1267285;23;665;-75
2023/02/04 02:52:40;;;;;;;;;;;;;;;13.19;71.89;103064.06;1267260;23;633;-77
2023/02/04 02:53:31;;;;;;;;;;;;;;;13.18;72.08;103060.50;1267300;23;606;-77
2023/02/04 02:54:21;;;;;;;;;;;;;;;13.18;71.11;103063.19;1267330;23;638;-81
2023/02/04 02:55:12;;;;;;;;;;;;;;;13.18;71.52;103056.97;1266736;23;741;-79
2023/02/04 02:56:04;;;;;;;;;;;;;;;13.17;71.44;103061.44;1267464;23;617;-80
2023/02/04 02:56:54;;;;;;;;;;;;;;;13.17;71.92;103056.09;1267574;23;657;-81
2023/02/04 02:57:45;;;;;;;;;;;;;;;13.17;71.40;103060.56;1267533;23;654;-81
2023/02/04 02:58:35;;;;;;;;;;;;;;;13.15;71.22;103060.63;1267460;23;763;-80
2023/02/04 02:59:26;;;;;;;;;;;;;;;13.17;71.54;103061.44;1267628;23;731;-80
2023/02/04 03:00:17;;;;;;;;;;;;;;;13.17;71.72;103064.13;1267342;23;695;-81
2023/02/04 03:01:07;;;;;;;;;;;;;;;13.19;72.35;103069.41;1267262;23;1945;-81
2023/02/04 03:01:57;;;;;;;;;;;;;;;13.20;71.79;103068.50;1267404;23;668;-81
2023/02/04 03:02:48;;;;;;;;;;;;;;;13.19;71.38;103064.94;1267591;23;644;-81
2023/02/04 03:03:38;;;;;;;;;;;;;;;13.19;71.50;103072.09;1267332;23;627;-76
2023/02/04 03:04:29;;;;;;;;;;;;;;;13.19;71.41;103067.63;1267400;23;586;-75
2023/02/04 03:05:19;;;;;;;;;;;;;;;13.20;71.63;103069.34;1267219;23;621;-76
2023/02/04 03:06:10;;;;;;;;;;;;;;;13.21;72.06;103075.59;1267290;23;661;-76
2023/02/04 03:07:00;;;;;;;;;;;;;;;13.21;71.46;103075.59;1267319;23;628;-75
2023/02/04 03:07:50;;;;;;;;;;;;;;;13.22;71.78;103071.97;1267383;23;660;-75
2023/02/04 03:08:42;;;;;;;;;;;;;;;13.22;71.64;103068.44;1267292;23;638;-76
2023/02/04 03:09:32;;;;;;;;;;;;;;;13.19;71.30;103072.97;1267320;23;657;-76
2023/02/04 03:10:23;;;;;;;;;;;;;;;13.19;71.87;103061.38;1267230;23;613;-78
2023/02/04 03:11:13;;;;;;;;;;;;;;;13.19;71.79;103064.06;1267424;23;621;-79
2023/02/04 03:12:04;;;;;;;;;;;;;;;13.19;71.94;103067.63;1267353;23;633;-79
2023/02/04 03:12:54;;;;;;;;;;;;;;;13.20;72.18;103060.47;1267448;23;641;-79
2023/02/04 03:13:45;;;;;;;;;;;;;;;13.18;71.68;103062.31;1272206;23;684;-80
2023/02/04 03:14:37;;;;;;;;;;;;;;;13.18;71.79;103063.19;1273125;23;644;-80
2023/02/04 03:15:27;;;;;;;;;;;;;;;13.17;71.15;103065.94;1267522;23;720;-80
2023/02/04 03:16:18;;;;;;;;;;;;;;;13.16;71.20;103062.38;1267498;23;720;-80
2023/02/04 03:17:08;;;;;;;;;;;;;;;13.16;71.15;103058.81;1267447;23;689;-80
2023/02/04 03:17:58;;;;;;;;;;;;;;;13.12;71.74;103067.88;1267284;23;649;-79
2023/02/04 03:18:49;;;;;;;;;;;;;;;13.11;72.15;103060.78;1267409;23;637;-79
2023/02/04 03:19:39;;;;;;;;;;;;;;;13.10;72.09;103061.72;1267331;23;649;-78
2023/02/04 03:20:30;;;;;;;;;;;;;;;13.10;72.20;103061.72;1267349;23;666;-79
2023/02/04 03:21:20;;;;;;;;;;;;;;;13.09;71.52;103062.63;1267361;23;655;-79
2023/02/04 03:22:10;;;;;;;;;;;;;;;13.11;71.71;103063.44;1267420;23;656;-81
2023/02/04 03:23:01;;;;;;;;;;;;;;;13.12;72.27;103054.50;1267242;23;621;-79
2023/02/04 03:23:55;;;;;;;;;;;;;;;13.12;72.14;103062.53;1267294;23;622;-78
2023/02/04 03:24:45;;;;;;;;;;;;;;;13.12;71.78;103063.41;1267253;23;681;-79
2023/02/04 03:25:36;;;;;;;;;;;;;;;13.12;71.45;103058.03;1267260;23;665;-78
2023/02/04 03:26:26;;;;;;;;;;;;;;;13.12;72.22;103058.03;1267296;23;665;-77
2023/02/04 03:27:17;;;;;;;;;;;;;;;13.12;71.46;103059.84;1267432;23;645;-78
2023/02/04 03:28:07;;;;;;;;;;;;;;;13.11;71.79;103053.63;1272015;23;645;-78
2023/02/04 03:28:57;;;;;;;;;;;;;;;13.12;72.16;103051.81;1272891;23;609;-78
2023/02/04 03:29:48;;;;;;;;;;;;;;;13.10;71.44;103049.19;1266742;23;671;-79
2023/02/04 03:30:38;;;;;;;;;;;;;;;13.11;71.83;103058.09;1267298;23;602;-79
2023/02/04 03:31:29;;;;;;;;;;;;;;;13.11;71.78;103066.13;1267246;23;630;-78
2023/02/04 03:32:19;;;;;;;;;;;;;;;13.11;71.64;103058.97;1267137;23;603;-78
2023/02/04 03:33:09;;;;;;;;;;;;;;;13.12;71.85;103062.53;1267410;23;668;-80
2023/02/04 03:34:00;;;;;;;;;;;;;;;13.12;71.56;103060.72;1267539;23;608;-81
2023/02/04 03:34:50;;;;;;;;;;;;;;;13.12;72.10;103066.06;1267392;23;633;-81
2023/02/04 03:35:41;;;;;;;;;;;;;;;13.13;72.14;103061.59;1267311;23;672;-79
2023/02/04 03:36:31;;;;;;;;;;;;;;;13.11;71.96;103063.44;1272169;23;1013;-78
2023/02/04 03:37:22;;;;;;;;;;;;;;;13.11;71.68;103060.78;1273004;23;617;-79
2023/02/04 03:38:12;;;;;;;;;;;;;;;13.10;72.12;103059.91;1267447;23;606;-78
2023/02/04 03:39:02;;;;;;;;;;;;;;;13.09;72.34;103058.16;1271532;23;667;-78
2023/02/04 03:39:53;;;;;;;;;;;;;;;13.11;72.05;103060.78;1273018;23;589;-78
2023/02/04 03:40:43;;;;;;;;;;;;;;;13.11;72.21;103061.66;1266505;23;645;-78
2023/02/04 03:41:34;;;;;;;;;;;;;;;13.10;71.49;103067.94;1267265;23;672;-78
2023/02/04 03:42:24;;;;;;;;;;;;;;;13.11;71.87;103066.13;1267293;23;648;-79
2023/02/04 03:43:15;;;;;;;;;;;;;;;13.10;71.71;103061.72;1267356;23;617;-79
2023/02/04 03:44:05;;;;;;;;;;;;;;;13.11;71.78;103068.81;1267314;23;630;-77
2023/02/04 03:44:56;;;;;;;;;;;;;;;13.11;71.94;103066.13;1267454;23;636;-79
2023/02/04 03:45:46;;;;;;;;;;;;;;;13.11;71.89;103067.00;1267446;23;673;-79
2023/02/04 03:46:36;;;;;;;;;;;;;;;13.12;72.15;103075.91;1267239;23;605;-79
2023/02/04 03:47:27;;;;;;;;;;;;;;;13.11;72.15;103075.03;1267347;23;644;-79
2023/02/04 03:48:17;;;;;;;;;;;;;;;13.12;71.93;103070.56;1267373;23;598;-79
2023/02/04 03:49:08;;;;;;;;;;;;;;;13.10;72.08;103080.44;1267248;23;649;-78
2023/02/04 03:49:58;;;;;;;;;;;;;;;13.08;71.78;103080.50;1267349;23;636;-76
2023/02/04 03:50:48;;;;;;;;;;;;;;;13.08;72.25;103079.63;1267262;23;696;-76
2023/02/04 03:51:39;;;;;;;;;;;;;;;13.07;72.13;103091.31;1267245;23;618;-75
2023/02/04 03:52:29;;;;;;;;;;;;;;;13.07;72.42;103091.31;1267405;23;642;-76
2023/02/04 03:53:20;;;;;;;;;;;;;;;13.07;72.17;103085.94;1267107;23;601;-75
2023/02/04 03:54:11;;;;;;;;;;;;;;;13.09;71.96;103092.09;1267788;23;896;-75
2023/02/04 03:55:01;;;;;;;;;;;;;;;13.08;71.70;103082.31;1267979;23;645;-81
2023/02/04 03:55:52;;;;;;;;;;;;;;;13.09;71.92;103086.72;1267998;23;645;-77
2023/02/04 03:56:42;;;;;;;;;;;;;;;13.09;71.74;103089.41;1267513;23;601;-77
2023/02/04 03:57:33;;;;;;;;;;;;;;;13.07;72.13;103085.94;1267769;23;632;-79
2023/02/04 03:58:23;;;;;;;;;;;;;;;13.08;71.90;103087.66;1268549;23;664;-79
2023/02/04 03:59:13;;;;;;;;;;;;;;;13.05;72.63;103087.81;1267898;23;619;-79
2023/02/04 04:00:04;;;;;;;;;;;;;;;13.06;72.25;103084.19;1267679;23;662;-79
2023/02/04 04:00:54;;;;;;;;;;;;;;;13.04;71.95;103091.41;1267601;23;1893;-79
2023/02/04 04:01:45;;;;;;;;;;;;;;;13.04;72.24;103088.75;1267656;23;645;-78
2023/02/04 04:02:35;;;;;;;;;;;;;;;13.06;72.38;103086.88;1267398;23;1221;-80
2023/02/04 04:03:26;;;;;;;;;;;;;;;13.05;72.49;103088.69;1267638;23;641;-79
2023/02/04 04:04:16;;;;;;;;;;;;;;;13.04;72.53;103083.38;1267647;23;609;-77
2023/02/04 04:05:06;;;;;;;;;;;;;;;13.04;71.83;103078.03;1267859;23;630;-75
2023/02/04 04:05:57;;;;;;;;;;;;;;;13.05;72.30;103083.31;1267752;23;610;-76
2023/02/04 04:06:47;;;;;;;;;;;;;;;13.06;72.24;103076.19;1267768;23;644;-79
2023/02/04 04:07:38;;;;;;;;;;;;;;;13.06;72.11;103081.53;1267673;23;563;-79
2023/02/04 04:08:28;;;;;;;;;;;;;;;13.04;72.20;103075.34;1267735;23;692;-78
2023/02/04 04:09:18;;;;;;;;;;;;;;;13.03;72.34;103077.16;1267649;23;641;-77
2023/02/04 04:10:09;;;;;;;;;;;;;;;13.03;72.34;103079.84;1267686;23;645;-75
2023/02/04 04:10:59;;;;;;;;;;;;;;;13.02;72.44;103079.91;1272558;23;703;-75
2023/02/04 04:11:50;;;;;;;;;;;;;;;13.02;72.12;103082.56;1273492;23;634;-75
2023/02/04 04:12:40;;;;;;;;;;;;;;;13.03;72.30;103082.50;1267827;23;597;-76
2023/02/04 04:13:31;;;;;;;;;;;;;;;13.01;71.74;103076.34;1267734;23;723;-76
2023/02/04 04:14:21;;;;;;;;;;;;;;;13.00;71.79;103084.44;1267652;23;598;-76
2023/02/04 04:15:11;;;;;;;;;;;;;;;13.02;72.01;103088.81;1267739;23;615;-76
2023/02/04 04:16:03;;;;;;;;;;;;;;;13.02;71.96;103095.97;1267639;23;641;-76
2023/02/04 04:16:54;;;;;;;;;;;;;;;13.03;72.47;103089.66;1267776;23;622;-76
2023/02/04 04:17:44;;;;;;;;;;;;;;;13.01;72.54;103086.19;1267546;23;649;-76
2023/02/04 04:18:35;;;;;;;;;;;;;;;13.01;72.66;103088.84;1267640;23;616;-75
2023/02/04 04:19:25;;;;;;;;;;;;;;;13.00;72.53;103096.00;1267515;23;680;-75
2023/02/04 04:20:15;;;;;;;;;;;;;;;13.01;72.31;103092.41;1267717;23;629;-76
2023/02/04 04:21:06;;;;;;;;;;;;;;;13.01;71.66;103096.88;1267535;23;1932;-76
2023/02/04 04:21:56;;;;;;;;;;;;;;;13.01;72.28;103091.53;1267752;23;606;-75
2023/02/04 04:22:47;;;;;;;;;;;;;;;13.00;72.03;103100.50;1267568;23;696;-76
2023/02/04 04:23:37;;;;;;;;;;;;;;;13.01;72.21;103092.41;1267518;23;641;-75
2023/02/04 04:24:27;;;;;;;;;;;;;;;13.01;72.23;103096.88;1267592;23;630;-76
2023/02/04 04:25:18;;;;;;;;;;;;;;;13.01;72.49;103096.88;1267523;23;643;-76
2023/02/04 04:26:08;;;;;;;;;;;;;;;13.02;71.77;103104.00;1267655;23;641;-76